Latest Weather Observations for Shepparton

IDV60801

Issued at 9:35 pm EST Saturday 19 April 2014 (issued every 30 minutes, with the page automatically refreshed every 10 minutes)

About weather observations | Map of weather stations | Latest weather observations for VIC | Other Formats
Station Details ID: 081125 Name: SHEPPARTON AIRPORT Lat: -36.43 Lon: 145.39 Height: 113.9 m
Data from the previous 72 hours. | See also: Recent months at Shepparton
Date/Time
EST
Temp
°C
App
Temp
°C
Dew
Point
Rel
Hum
%
Delta-T
°C
Wind Press
QNH
hPa
Press
MSL
hPa
Rain
since 9 am
mm
Dir
 
Spd
km/h
Gust
km/h
Spd
kts
Gust
kts
19/09:30pm 6.7 4.0 5.7 93 0.4 SSW 9 11 5 6 1018.5 - 0.0
19/09:00pm 7.2 5.1 5.7 90 0.7 S 6 7 3 4 1018.6 1018.6 0.0
19/08:30pm 7.7 6.7 5.7 87 0.9 S 0 0 0 0 1018.5 - 0.0
19/08:00pm 8.9 7.9 5.8 81 1.4 CALM 0 4 0 2 1018.5 - 0.0
19/07:30pm 9.8 8.9 6.0 77 1.8 CALM 0 0 0 0 1018.5 - 0.0
19/07:00pm 10.0 8.5 5.2 72 2.2 S 2 6 1 3 1018.3 - 0.0
19/06:30pm 11.2 8.7 4.9 65 2.9 S 7 7 4 4 1018.2 - 0.0
19/06:00pm 12.3 9.5 5.0 61 3.4 SW 9 11 5 6 1018.1 1018.1 0.0
19/05:30pm 13.5 9.9 4.9 56 4.0 SW 13 15 7 8 1018.0 - 0.0
19/05:00pm 15.7 11.2 4.4 47 5.3 SSW 17 22 9 12 1017.9 - 0.0
19/04:30pm 16.3 11.9 5.0 47 5.4 SSW 17 26 9 14 1018.0 - 0.0
19/04:00pm 16.7 12.0 5.3 47 5.5 S 19 28 10 15 1018.1 - 0.0
19/03:30pm 16.7 11.8 5.0 46 5.6 SSW 20 30 11 16 1018.2 - 0.0
19/03:00pm 15.5 9.8 4.8 49 5.0 SSW 24 30 13 16 1018.3 1018.3 0.0
19/02:30pm 16.3 11.5 5.6 49 5.2 S 20 30 11 16 1018.3 - 0.0
19/02:00pm 16.1 11.1 6.3 52 4.8 SSW 22 28 12 15 1018.6 - 0.0
19/01:30pm 15.6 11.3 6.9 56 4.3 S 19 24 10 13 1018.8 - 0.0
19/01:00pm 15.5 10.1 6.5 55 4.4 S 24 35 13 19 1019.3 - 0.0
19/12:30pm 15.8 11.3 7.0 56 4.4 S 20 30 11 16 1019.9 - 0.0
19/12:00pm 15.8 11.4 7.3 57 4.2 SSW 20 32 11 17 1020.4 1020.3 0.0
19/11:30am 14.7 9.8 6.8 59 3.9 SSW 22 30 12 16 1020.6 - 0.0
19/11:00am 14.4 9.8 6.7 60 3.8 S 20 33 11 18 1020.8 - 0.0
19/10:30am 14.3 10.0 6.9 61 3.6 SW 19 26 10 14 1020.8 - 0.0
19/10:00am 13.6 9.3 7.2 65 3.1 SSW 19 28 10 15 1020.9 - 0.0
19/09:30am 12.3 8.7 6.6 68 2.7 SW 15 20 8 11 1020.9 - 0.0
19/09:00am 10.9 7.8 7.2 78 1.8 SW 13 17 7 9 1020.9 1020.8 0.0
19/08:30am 10.0 6.9 7.3 83 1.3 SW 13 17 7 9 1020.8 - 0.0
19/08:00am 8.6 5.7 6.7 88 0.9 WSW 11 13 6 7 1020.6 - 0.0
19/07:30am 7.5 5.2 7.4 99 0.0 WSW 9 11 5 6 1020.2 - 0.0
19/07:00am 5.1 2.8 4.7 97 0.2 SW 6 7 3 4 1019.9 - 0.0
19/06:30am 5.3 4.1 4.7 96 0.3 CALM 0 0 0 0 1019.7 - 0.0
19/06:00am 5.9 3.7 5.3 96 0.3 SW 6 7 3 4 1019.4 1019.3 0.0
19/05:30am 5.4 4.2 4.7 95 0.3 CALM 0 0 0 0 1019.4 - 0.0
19/05:00am 6.0 4.1 5.1 94 0.4 SW 4 9 2 5 1019.2 - 0.0
19/04:30am 5.9 3.4 4.7 92 0.5 SW 7 9 4 5 1019.2 - 0.0
19/04:00am 6.8 4.5 5.6 92 0.5 SW 7 11 4 6 1019.2 - 0.0
19/03:30am 6.2 3.4 5.2 93 0.4 WSW 9 13 5 7 1019.3 - 0.0
19/03:00am 6.0 3.1 4.8 92 0.5 WSW 9 11 5 6 1019.0 1019.0 0.0
19/02:30am 6.5 4.0 4.7 88 0.8 WSW 7 9 4 5 1019.3 - 0.0
19/02:00am 7.5 5.3 5.3 86 1.0 SW 6 7 3 4 1019.4 - 0.0
19/01:30am 8.0 4.5 5.5 84 1.1 WSW 13 17 7 9 1019.5 - 0.0
19/01:00am 8.8 5.0 5.9 82 1.3 SW 15 19 8 10 1019.6 - 0.0
19/12:30am 9.1 5.3 5.8 80 1.5 SW 15 17 8 9 1019.8 - 0.0
19/12:00am 9.8 6.1 6.2 78 1.7 SW 15 19 8 10 1019.7 1019.6 0.0
 
Date/Time
EST
Temp
°C
App
Temp
°C
Dew
Point
Rel
Hum
%
Delta-T
°C
Wind Press
QNH
hPa
Press
MSL
hPa
Rain
since 9 am
mm
Dir
 
Spd
km/h
Gust
km/h
Spd
kts
Gust
kts
18/11:30pm 10.6 6.4 5.8 72 2.2 SW 17 22 9 12 1019.8 - 0.0
18/11:00pm 11.3 6.7 5.8 69 2.6 SSW 19 28 10 15 1019.9 - 0.0
18/10:30pm 11.3 7.6 6.2 71 2.4 SSW 15 20 8 11 1020.1 - 0.0
18/10:00pm 11.4 7.0 6.7 73 2.2 SSW 19 24 10 13 1020.0 - 0.0
18/09:30pm 11.0 7.5 7.1 77 1.9 SW 15 19 8 10 1019.9 - 0.0
18/09:00pm 11.1 8.0 7.2 77 1.9 SW 13 17 7 9 1019.6 1019.5 0.0
18/08:30pm 11.3 8.4 6.6 73 2.2 SSW 11 13 6 7 1019.4 - 0.0
18/08:00pm 12.0 8.9 7.1 72 2.4 SSW 13 15 7 8 1018.9 - 0.0
18/07:30pm 12.0 9.7 7.3 73 2.3 S 9 13 5 7 1018.6 - 0.0
18/07:00pm 12.7 9.6 7.4 70 2.6 S 13 19 7 10 1018.2 - 0.0
18/06:30pm 13.3 10.2 7.1 66 3.0 S 13 20 7 11 1017.7 - 0.0
18/06:00pm 14.9 10.5 7.2 60 3.8 S 20 30 11 16 1017.3 1017.2 0.0
18/05:30pm 15.6 10.9 7.9 60 3.9 S 22 33 12 18 1017.0 - 0.0
18/05:00pm 16.5 10.8 8.5 59 4.1 S 28 46 15 25 1016.6 - 0.0
18/04:58pm 16.6 10.9 8.3 58 4.2 S 28 46 15 25 1016.6 - 0.0
18/04:30pm 17.2 13.2 10.3 64 3.7 S 22 32 12 17 1016.3 - 0.0
18/04:00pm 16.9 12.3 9.6 62 3.8 S 24 32 13 17 1016.0 - 0.0
18/03:30pm 17.6 12.5 10.5 63 3.8 S 28 41 15 22 1016.0 - 0.0
18/03:00pm 17.6 11.9 11.8 69 3.2 S 33 46 18 25 1015.6 1015.5 0.0
18/02:33pm 17.9 12.4 11.9 68 3.3 SSW 32 50 17 27 1015.2 - 0.0
18/02:30pm 18.8 13.1 11.9 64 3.8 SSW 33 50 18 27 1015.1 - 0.0
18/02:23pm 19.3 12.3 11.3 60 4.4 SSW 39 50 21 27 1015.0 - 0.0
18/02:00pm 20.5 15.2 11.2 55 5.1 W 30 39 16 21 1014.5 - 0.0
18/01:30pm 21.2 17.3 12.1 56 5.1 W 24 39 13 21 1014.9 - 0.0
18/01:00pm 20.5 15.7 11.7 57 4.9 W 28 37 15 20 1015.1 - 0.0
18/12:30pm 20.9 16.8 12.6 59 4.7 W 26 37 14 20 1015.6 - 0.0
18/12:00pm 19.4 15.4 11.7 61 4.3 WSW 24 33 13 18 1016.2 1016.1 0.0
18/11:30am 17.8 15.8 11.6 67 3.4 WSW 13 24 7 13 1016.6 - 0.0
18/11:00am 17.8 15.4 11.4 66 3.5 W 15 20 8 11 1016.8 - 0.0
18/10:30am 17.9 16.7 11.5 66 3.5 W 9 13 5 7 1016.7 - 0.0
18/10:00am 17.0 16.5 10.6 66 3.4 NNW 4 9 2 5 1016.9 - 0.0
18/09:30am 15.4 14.8 10.4 72 2.6 W 4 7 2 4 1017.2 - 0.0
18/09:00am 14.9 14.4 10.9 77 2.1 N 4 7 2 4 1017.5 1017.5 0.0
18/08:30am 13.7 12.0 11.2 85 1.3 NE 11 15 6 8 1017.2 - 0.0
18/08:00am 11.5 11.9 11.3 99 0.1 CALM 0 4 0 2 1017.4 - 0.0
18/07:30am 9.4 9.3 9.3 99 0.0 CALM 0 0 0 0 1017.2 - 0.0
18/07:00am 9.4 9.3 9.3 99 0.0 CALM 0 0 0 0 1017.1 - 0.0
18/06:30am 9.2 9.0 9.1 99 0.0 CALM 0 0 0 0 1017.1 - 0.0
18/06:00am 9.2 9.0 9.1 99 0.0 CALM 0 0 0 0 1017.0 1016.9 0.0
18/05:30am 8.9 8.6 8.8 99 0.0 CALM 0 0 0 0 1016.9 - 0.0
18/05:00am 8.4 8.0 8.3 99 0.0 CALM 0 0 0 0 1016.9 - 0.0
18/04:30am 8.2 7.8 8.1 99 0.0 CALM 0 0 0 0 1017.0 - 0.0
18/04:00am 7.9 7.4 7.8 99 0.0 CALM 0 0 0 0 1016.9 - 0.0
18/03:30am 8.7 8.4 8.6 99 0.0 CALM 0 0 0 0 1017.0 - 0.0
18/03:00am 9.1 8.9 9.0 99 0.0 CALM 0 0 0 0 1017.3 1017.2 0.0
18/02:30am 9.4 9.2 9.1 98 0.1 CALM 0 0 0 0 1017.5 - 0.0
18/02:00am 9.5 9.3 9.0 97 0.2 CALM 0 0 0 0 1017.8 - 0.0
18/01:30am 10.0 9.9 9.5 97 0.3 CALM 0 0 0 0 1017.9 - 0.0
18/01:00am 10.1 10.0 9.5 96 0.3 CALM 0 0 0 0 1018.2 - 0.0
18/12:30am 10.6 10.7 10.0 96 0.3 CALM 0 0 0 0 1018.2 - 0.0
18/12:00am 11.2 11.4 10.6 96 0.3 CALM 0 0 0 0 1018.6 1018.6 0.0
 
Date/Time
EST
Temp
°C
App
Temp
°C
Dew
Point
Rel
Hum
%
Delta-T
°C
Wind Press
QNH
hPa
Press
MSL
hPa
Rain
since 9 am
mm
Dir
 
Spd
km/h
Gust
km/h
Spd
kts
Gust
kts
17/11:30pm 11.4 11.6 10.5 94 0.5 CALM 0 0 0 0 1018.7 - 0.0
17/11:00pm 11.5 11.7 10.6 94 0.5 CALM 0 0 0 0 1018.9 - 0.0
17/10:30pm 11.4 11.5 10.3 93 0.6 CALM 0 0 0 0 1019.2 - 0.0
17/10:00pm 11.8 11.3 10.7 93 0.6 NNE 4 6 2 3 1019.4 - 0.0
17/09:30pm 12.2 11.2 10.9 92 0.7 NNE 7 9 4 5 1019.4 - 0.0
17/09:00pm 12.6 12.9 11.0 90 0.8 CALM 0 0 0 0 1019.5 1019.4 0.0
17/08:30pm 13.5 13.9 11.4 87 1.1 CALM 0 0 0 0 1019.6 - 0.0
17/08:00pm 14.4 14.8 11.4 82 1.6 CALM 0 0 0 0 1019.6 - 0.0
17/07:30pm 14.0 14.2 10.6 80 1.8 CALM 0 0 0 0 1019.4 - 0.0
17/07:00pm 15.5 15.7 10.7 73 2.6 CALM 0 0 0 0 1019.2 - 0.0
17/06:30pm 17.1 17.3 10.5 65 3.5 CALM 0 0 0 0 1019.2 - 0.0
17/06:00pm 18.6 18.7 10.2 58 4.5 CALM 0 6 0 3 1018.9 1018.9 0.0
17/05:30pm 19.7 18.6 10.1 54 5.2 W 6 7 3 4 1018.8 - 0.0
17/05:00pm 20.7 19.5 10.2 51 5.7 W 7 9 4 5 1018.8 - 0.0
17/04:30pm 22.1 20.7 9.6 45 6.8 SSW 7 11 4 6 1018.8 - 0.0
17/04:00pm 21.8 20.1 8.3 42 7.1 SW 7 11 4 6 1018.9 - 0.0
17/03:30pm 22.2 20.3 9.0 43 7.1 W 9 15 5 8 1019.2 - 0.0
17/03:00pm 22.2 20.0 9.4 44 6.9 WSW 11 15 6 8 1019.4 1019.3 0.0
17/02:30pm 22.0 20.7 9.9 46 6.6 SW 7 15 4 8 1019.6 - 0.0
17/02:00pm 21.9 19.5 8.8 43 7.0 WNW 11 17 6 9 1019.8 - 0.0
17/01:30pm 21.9 20.2 9.8 46 6.6 WSW 9 17 5 9 1020.0 - 0.0
17/01:00pm 21.7 19.9 9.6 46 6.5 W 9 19 5 10 1020.2 - 0.0
17/12:30pm 21.4 19.3 9.6 47 6.4 W 11 17 6 9 1020.7 - 0.0
17/12:00pm 20.7 18.5 9.3 48 6.1 WSW 11 17 6 9 1021.2 1021.1 0.0
17/11:30am 20.4 19.7 9.9 51 5.7 WSW 4 13 2 7 1021.3 - 0.0
17/11:00am 19.9 18.7 10.3 54 5.2 WNW 7 11 4 6 1021.6 - 0.0
17/10:30am 18.8 18.7 10.9 60 4.3 SE 2 7 1 4 1021.6 - 0.0
17/10:00am 17.2 17.6 11.2 68 3.3 CALM 0 7 0 4 1021.7 - 0.0
17/09:30am 15.5 15.6 11.5 77 2.2 NNW 2 7 1 4 1021.7 - 0.0
17/09:00am 13.8 13.8 11.1 84 1.4 NW 2 6 1 3 1021.8 1021.7 0.0
17/08:30am 12.3 12.9 12.0 98 0.2 CALM 0 6 0 3 1021.7 - 0.0
17/08:00am 10.8 11.0 10.6 99 0.1 CALM 0 0 0 0 1021.6 - 0.0
17/07:30am 8.8 8.5 8.7 99 0.0 CALM 0 0 0 0 1021.3 - 0.0
17/07:00am 7.1 6.4 7.0 99 0.0 CALM 0 0 0 0 1021.0 - 0.0
17/06:30am 7.6 7.0 7.5 99 0.0 CALM 0 0 0 0 1020.7 - 0.0
17/06:00am 7.4 6.8 7.3 99 0.0 CALM 0 0 0 0 1020.5 1020.4 0.0
17/05:30am 7.6 7.0 7.5 99 0.0 CALM 0 0 0 0 1020.3 - 0.0
17/05:00am 7.7 7.1 7.6 99 0.0 CALM 0 0 0 0 1020.1 - 0.0
17/04:30am 7.9 7.4 7.8 99 0.0 CALM 0 0 0 0 1020.0 - 0.0
17/04:00am 8.3 7.9 8.2 99 0.0 CALM 0 0 0 0 1019.6 - 0.0
17/03:30am 7.9 6.6 7.8 99 0.0 NNW 4 7 2 4 1019.7 - 0.0
17/03:00am 8.2 7.8 8.1 99 0.0 CALM 0 0 0 0 1019.5 1019.4 0.0
17/02:30am 8.8 8.5 8.7 99 0.0 CALM 0 0 0 0 1019.3 - 0.0
17/02:00am 8.5 7.0 8.4 99 0.0 N 6 7 3 4 1019.5 - 0.0
17/01:30am 9.4 9.3 9.3 99 0.0 CALM 0 0 0 0 1019.5 - 0.0
17/01:00am 9.5 9.3 9.2 98 0.1 CALM 0 0 0 0 1019.5 - 0.0
17/12:30am 9.8 9.7 9.5 98 0.2 CALM 0 0 0 0 1019.4 - 0.0
17/12:00am 10.5 10.6 10.0 97 0.3 CALM 0 0 0 0 1019.4 1019.3 0.0
 
Date/Time
EST
Temp
°C
App
Temp
°C
Dew
Point
Rel
Hum
%
Delta-T
°C
Wind Press
QNH
hPa
Press
MSL
hPa
Rain
since 9 am
mm
Dir
 
Spd
km/h
Gust
km/h
Spd
kts
Gust
kts
16/11:30pm 10.8 10.9 10.2 96 0.3 CALM 0 0 0 0 1019.7 - 0.0
16/11:00pm 11.3 11.5 10.4 94 0.5 CALM 0 0 0 0 1020.0 - 0.0
16/10:30pm 11.6 11.8 10.5 93 0.6 CALM 0 0 0 0 1020.3 - 0.0
16/10:00pm 12.4 12.6 10.6 89 0.9 CALM 0 0 0 0 1020.3 - 0.0

Other Formats:

Comma delimited format used in spreadsheet applications
http://www.bom.gov.au/fwo/IDV60801/IDV60801.94875.axf

JavaScript Object Notation format (JSON) in row-major order
http://www.bom.gov.au/fwo/IDV60801/IDV60801.94875.json